Flight Track Log - Related Links

Times and Time Zones

All times are in EDT time to prevent confusion due to time zone crossing. See the FDX127 flight status page for this flight to view local times or setup timezone preferences in your user account.

Time Position Orientation Groundspeed Altitude Reporting Facility
EDT Latitude Longitude Course Direction KTS MPH feet Rate Location/Type
Thu 09:44:07 PM 43.6840 -79.6580 317° Northwest  Level FlightAware ADS-B
Thu 09:52:00 PM 43.4809 -79.7768 209° Southwest  Level FlightAware Approximate
Thu 09:53:00 PM 43.3818 -79.8553 209° Southwest  Level FlightAware Approximate
Thu 09:54:00 PM 43.2829 -79.9337 210° Southwest  Level FlightAware Approximate
Thu 09:54:12 PM 43.6840 -79.6560 210° Southwest 10 12  Level FlightAware ADS-B
Thu 09:56:00 PM 43.4929 -79.7678 209° Southwest  Level FlightAware Approximate
Thu 09:57:00 PM 43.3938 -79.8463 209° Southwest  Level FlightAware Approximate
Thu 09:58:00 PM 43.2952 -79.9254 206° Southwest  Level FlightAware Approximate
Thu 09:58:38 PM 43.6950 -79.6370 206° Southwest 12 14  Level FlightAware ADS-B
Thu 10:00:07 PM 43.6770 -79.6600 223° Southwest 167 192 1,200 1,269 Climbing FlightAware ADS-B
Thu 10:00:22 PM 43.6690 -79.6740 232° Southwest 181 208 2,200 2,634 Climbing FlightAware ADS-B
Thu 10:00:48 PM 43.6570 -79.7010 238° Southwest 232 267 3,000 2,836 Climbing FlightAware ADS-B
Thu 10:01:17 PM 43.6340 -79.7400 231° Southwest 262 302 4,800 4,111 Climbing FlightAware ADS-B
Thu 10:01:42 PM 43.6070 -79.7610 209° Southwest 275 316 6,700 4,582 Climbing FlightAware ADS-B
Thu 10:02:12 PM 43.5700 -79.7790 199° South 284 327 9,000 3,920 Climbing FlightAware ADS-B
Thu 10:02:57 PM 43.5260 -79.8010 200° South 302 348 11,600 3,709 Climbing FlightAware ADS-B
Thu 10:03:07 PM 43.5020 -79.8250 216° Southwest 330 380 12,400 2,836 Climbing FlightAware ADS-B
Thu 10:03:52 PM 43.4530 -79.8960 226° Southwest 388 447 14,200 2,753 Climbing FlightAware ADS-B
Thu 10:04:32 PM 43.3980 -79.9720 225° Southwest 426 490 16,300 3,600 Climbing FlightAware ADS-B
Thu 10:05:12 PM 43.3390 -80.0510 224° Southwest 440 506 19,000 3,953 Climbing FlightAware ADS-B
Thu 10:05:57 PM 43.2670 -80.1480 224° Southwest 456 525 21,900 3,169 Climbing FlightAware ADS-B
Thu 10:06:41 PM 43.2020 -80.2350 224° Southwest 474 545 23,700 2,313 Climbing FlightAware ADS-B
Thu 10:07:20 PM 43.1390 -80.3190 224° Southwest 495 570 25,100 2,634 Climbing FlightAware ADS-B
Thu 10:08:03 PM 43.0650 -80.4180 224° Southwest 502 578 27,300 3,000 Climbing FlightAware ADS-B
Thu 10:08:46 PM 42.9940 -80.5100 223° Southwest 501 577 29,400 2,721 Climbing FlightAware ADS-B
Thu 10:09:29 PM 42.9220 -80.6040 224° Southwest 490 564 31,200 1,835 Climbing FlightAware ADS-B
Thu 10:10:11 PM 42.8530 -80.6950 224° Southwest 487 560 32,000 593 Climbing FlightAware ADS-B
Thu 10:10:50 PM 42.7920 -80.7770 225° Southwest 487 560 32,000  Level FlightAware ADS-B
Thu 10:11:33 PM 42.7320 -80.8560 224° Southwest 490 564 32,000  Level FlightAware ADS-B
Thu 10:12:14 PM 42.6490 -80.9440 218° Southwest 498 573 32,000  Level FlightAware ADS-B
Thu 10:12:59 PM 42.5620 -81.0280 215° Southwest 498 573 32,000  Level FlightAware ADS-B
Thu 10:13:39 PM 42.4860 -81.1020 216° Southwest 498 573 32,000  Level FlightAware ADS-B
Thu 10:14:21 PM 42.4070 -81.1780 215° Southwest 496 571 32,000 488 Level FlightAware ADS-B
Thu 10:15:05 PM 42.3320 -81.2500 215° Southwest 495 570 32,700 1,774 Climbing FlightAware ADS-B
Thu 10:16:16 PM 42.2080 -81.3660 215° Southwest 481 554 35,400 2,056 Climbing FlightAware ADS-B
Thu 10:16:53 PM 42.1280 -81.4430 216° Southwest 489 563 36,400 1,229 Climbing FlightAware ADS-B
Thu 10:17:39 PM 42.0440 -81.5230 215° Southwest 501 577 37,100 1,116 Climbing FlightAware ADS-B
Thu 10:18:19 PM 41.9690 -81.5940 215° Southwest 488 562 38,000 675 Climbing FlightAware ADS-B
Thu 10:18:59 PM 41.8930 -81.6640 214° Southwest 481 554 38,000  Level FlightAware ADS-B
Thu 10:19:43 PM 41.8140 -81.7420 216° Southwest 483 556 38,000  Level FlightAware ADS-B
Thu 10:20:25 PM 41.7540 -81.8410 231° Southwest 479 551 38,000  Level FlightAware ADS-B
Thu 10:21:05 PM 41.7000 -81.9320 232° Southwest 479 551 38,000  Level FlightAware ADS-B
Thu 10:21:49 PM 41.6380 -82.0370 232° Southwest 480 552 38,000  Level FlightAware ADS-B
Thu 10:22:31 PM 41.5820 -82.1320 232° Southwest 481 554 38,000  Level FlightAware ADS-B
Thu 10:23:15 PM 41.5200 -82.2370 232° Southwest 481 554 38,000  Level FlightAware ADS-B
Thu 10:23:56 PM 41.4650 -82.3300 232° Southwest 484 557 38,000  Level FlightAware ADS-B
Thu 10:24:38 PM 41.4070 -82.4290 232° Southwest 484 557 38,000  Level FlightAware ADS-B
Thu 10:25:12 PM 41.3590 -82.5080 231° Southwest 483 556 38,000  Level FlightAware ADS-B
Thu 10:26:02 PM 41.2880 -82.6260 231° Southwest 482 555 38,000  Level FlightAware ADS-B
Thu 10:26:46 PM 41.2270 -82.7270 231° Southwest 480 552 38,000  Level FlightAware ADS-B
Thu 10:27:26 PM 41.1720 -82.8190 232° Southwest 480 552 38,000  Level FlightAware ADS-B
Thu 10:28:08 PM 41.1140 -82.9130 231° Southwest 479 551 38,000  Level FlightAware ADS-B
Thu 10:28:46 PM 41.0610 -83.0000 231° Southwest 478 550 38,000  Level FlightAware ADS-B
Thu 10:29:28 PM 41.0030 -83.0960 231° Southwest 477 549 38,000  Level FlightAware ADS-B
Thu 10:30:14 PM 40.9400 -83.1980 231° Southwest 477 549 38,000  Level FlightAware ADS-B
Thu 10:30:55 PM 40.8830 -83.2930 232° Southwest 479 551 38,000  Level FlightAware ADS-B
Thu 10:31:40 PM 40.8200 -83.3930 230° Southwest 480 552 38,000  Level FlightAware ADS-B
Thu 10:32:21 PM 40.7610 -83.4890 231° Southwest 484 557 38,000  Level FlightAware ADS-B
Thu 10:33:00 PM 40.7070 -83.5790 232° Southwest 487 560 38,000 73 Level FlightAware ADS-B
Thu 10:33:43 PM 40.6470 -83.6760 231° Southwest 486 559 38,100  Climbing FlightAware ADS-B
Thu 10:34:28 PM 40.5810 -83.7810 230° Southwest 485 558 38,000 -72 Descending FlightAware ADS-B
Thu 10:35:06 PM 40.5260 -83.8670 230° Southwest 484 557 38,000  Level FlightAware ADS-B
Thu 10:35:48 PM 40.4670 -83.9620 231° Southwest 484 557 38,000  Level FlightAware ADS-B
Thu 10:36:32 PM 40.4050 -84.0600 230° Southwest 485 558 38,000  Level FlightAware ADS-B
Thu 10:37:16 PM 40.3430 -84.1600 231° Southwest 486 559 38,000  Level FlightAware ADS-B
Thu 10:37:52 PM 40.2900 -84.2440 230° Southwest 487 560 38,000  Level FlightAware ADS-B
Thu 10:38:36 PM 40.2270 -84.3420 230° Southwest 488 562 38,000  Level FlightAware ADS-B
Thu 10:39:22 PM 40.1580 -84.4510 230° Southwest 489 563 38,000 69 Level FlightAware ADS-B
Thu 10:40:03 PM 40.1010 -84.5390 230° Southwest 487 560 38,100  Climbing FlightAware ADS-B
Thu 10:40:37 PM 40.0520 -84.6150 230° Southwest 485 558 38,000 -73 Descending FlightAware ADS-B
Thu 10:41:25 PM 39.9820 -84.7250 230° Southwest 485 558 38,000  Level FlightAware ADS-B
Thu 10:42:09 PM 39.9200 -84.8210 230° Southwest 483 556 38,000  Level FlightAware ADS-B
Thu 10:42:50 PM 39.8600 -84.9150 230° Southwest 480 552 38,000  Level FlightAware ADS-B
Thu 10:43:33 PM 39.7990 -85.0090 230° Southwest 478 550 38,000  Level FlightAware ADS-B
Thu 10:44:15 PM 39.7370 -85.1030 229° Southwest 476 548 38,000  Level FlightAware ADS-B
Thu 10:44:55 PM 39.6810 -85.1880 229° Southwest 476 548 38,000  Level FlightAware ADS-B
Thu 10:45:18 PM 39.6500 -85.2360 230° Southwest 478 550 38,000  Level FlightAware ADS-B
Thu 10:46:17 PM 39.5630 -85.3680 229° Southwest 482 555 38,000  Level FlightAware ADS-B
Thu 10:46:47 PM 39.5190 -85.4360 230° Southwest 483 556 38,000  Level FlightAware ADS-B
Thu 10:47:29 PM 39.4600 -85.5270 230° Southwest 483 556 38,000  Level FlightAware ADS-B
Thu 10:48:09 PM 39.4000 -85.6170 229° Southwest 482 555 38,000  Level FlightAware ADS-B
Thu 10:48:51 PM 39.3410 -85.7060 229° Southwest 480 552 38,000  Level FlightAware ADS-B
Thu 10:49:35 PM 39.2760 -85.8010 229° Southwest 480 552 38,000  Level FlightAware ADS-B
Thu 10:50:15 PM 39.2180 -85.8900 230° Southwest 477 549 38,000  Level FlightAware ADS-B
Thu 10:50:57 PM 39.1570 -85.9810 229° Southwest 477 549 38,000  Level FlightAware ADS-B
Thu 10:51:38 PM 39.0990 -86.0660 229° Southwest 476 548 38,000  Level FlightAware ADS-B
Thu 10:52:17 PM 39.0420 -86.1530 230° Southwest 478 550 38,000  Level FlightAware ADS-B
Thu 10:53:03 PM 38.9770 -86.2490 229° Southwest 477 549 38,000  Level FlightAware ADS-B
Thu 10:53:47 PM 38.9130 -86.3440 229° Southwest 477 549 38,000 71 Level FlightAware ADS-B
Thu 10:54:27 PM 38.8550 -86.4290 229° Southwest 476 548 38,100  Climbing FlightAware ADS-B
Thu 10:55:09 PM 38.7940 -86.5180 229° Southwest 474 545 38,000 -72 Descending FlightAware ADS-B
Thu 10:55:50 PM 38.7360 -86.6020 229° Southwest 472 543 38,000  Level FlightAware ADS-B
Thu 10:56:29 PM 38.6820 -86.6820 229° Southwest 470 541 38,000  Level FlightAware ADS-B
Thu 10:57:17 PM 38.6120 -86.7840 229° Southwest 468 539 38,000  Level FlightAware ADS-B
Thu 10:57:51 PM 38.5610 -86.8570 228° Southwest 466 536 38,000  Level FlightAware ADS-B
Thu 10:58:41 PM 38.4920 -86.9580 229° Southwest 466 536 38,000  Level FlightAware ADS-B
Thu 10:59:22 PM 38.4320 -87.0450 229° Southwest 466 536 38,000  Level FlightAware ADS-B
Thu 11:00:06 PM 38.3670 -87.1380 228° Southwest 468 539 38,000  Level FlightAware ADS-B
Thu 11:00:47 PM 38.3090 -87.2200 228° Southwest 470 541 38,000  Level FlightAware ADS-B
Thu 11:01:27 PM 38.2500 -87.3050 229° Southwest 473 544 38,000  Level FlightAware ADS-B
Thu 11:02:09 PM 38.1900 -87.3910 228° Southwest 476 548 38,000  Level FlightAware ADS-B
Thu 11:02:53 PM 38.1260 -87.4830 229° Southwest 478 550 38,000  Level FlightAware ADS-B
Thu 11:03:34 PM 38.0640 -87.5710 228° Southwest 480 552 38,000 72 Level FlightAware ADS-B
Thu 11:04:16 PM 38.0020 -87.6600 229° Southwest 481 554 38,100  Climbing FlightAware ADS-B
Thu 11:04:59 PM 37.9360 -87.7450 225° Southwest 487 560 38,000 -46 Descending FlightAware ADS-B
Thu 11:06:26 PM 37.7760 -87.8560 209° Southwest 495 570 38,000  Level FlightAware ADS-B
Thu 11:07:02 PM 37.7040 -87.9000 206° Southwest 489 563 38,000  Level FlightAware ADS-B
Thu 11:07:42 PM 37.6080 -87.9590 206° Southwest 481 554 38,000  Level FlightAware ADS-B
Thu 11:08:30 PM 37.5120 -88.0170 206° Southwest 476 548 38,000  Level FlightAware ADS-B
Thu 11:09:11 PM 37.4280 -88.0680 206° Southwest 477 549 38,000  Level FlightAware ADS-B
Thu 11:09:50 PM 37.3570 -88.1120 206° Southwest 478 550 38,000 -141 Level FlightAware ADS-B
Thu 11:10:36 PM 37.2600 -88.1690 205° Southwest 481 554 37,800 -594 Descending FlightAware ADS-B
Thu 11:11:31 PM 37.1480 -88.2380 206° Southwest 496 571 37,000 -944 Descending FlightAware ADS-B
Thu 11:12:24 PM 37.0400 -88.3030 206° Southwest 500 575 36,100 -905 Descending FlightAware ADS-B
Thu 11:13:37 PM 36.8920 -88.3900 205° Southwest 503 579 35,100 -1,034 Descending FlightAware ADS-B
Thu 11:14:20 PM 36.7990 -88.4450 205° Southwest 506 582 34,100 -1,537 Descending FlightAware ADS-B
Thu 11:14:59 PM 36.7100 -88.4990 206° Southwest 504 580 33,000 -1,304 Descending FlightAware ADS-B
Thu 11:15:29 PM 36.6460 -88.5360 205° Southwest 505 581 32,600 -789 Descending FlightAware ADS-B
Thu 11:16:15 PM 36.5480 -88.5940 205° Southwest 506 582 32,000 -600 Descending FlightAware ADS-B
Thu 11:17:09 PM 36.4430 -88.6550 205° Southwest 508 585 31,600 -240 Descending FlightAware ADS-B
Thu 11:17:55 PM 36.3590 -88.7040 205° Southwest 508 585 31,600  Level FlightAware ADS-B
Thu 11:18:32 PM 36.2920 -88.7420 205° Southwest 508 585 31,600  Level FlightAware ADS-B
Thu 11:19:20 PM 36.2050 -88.7930 205° Southwest 508 585 31,600  Level FlightAware ADS-B
Thu 11:19:57 PM 36.1380 -88.8310 205° Southwest 508 585 31,600  Level FlightAware ADS-B
Thu 11:21:00 PM 36.0240 -88.8970 205° Southwest 508 585 31,600  Level FlightAware ADS-B
Thu 11:21:36 PM 35.9590 -88.9350 205° Southwest 508 585 31,600  Level FlightAware ADS-B
Thu 11:22:25 PM 35.8700 -88.9860 205° Southwest 508 585 31,600  Level FlightAware ADS-B
Thu 11:23:03 PM 35.8020 -89.0250 205° Southwest 508 585 31,600  Level FlightAware ADS-B
Thu 11:23:38 PM 35.7380 -89.0620 205° Southwest 508 585 31,600  Level FlightAware ADS-B
Thu 11:24:28 PM 35.6480 -89.1140 205° Southwest 508 585 31,600  Level FlightAware ADS-B
Thu 11:25:04 PM 35.5830 -89.1510 205° Southwest 508 585 31,600  Level FlightAware ADS-B
Thu 11:25:49 PM 35.5010 -89.1980 205° Southwest 508 585 31,600  Level FlightAware ADS-B
Thu 11:26:26 PM 35.4340 -89.2360 205° Southwest 508 585 31,600 -14,538 Level FlightAware ADS-B
Thu 11:27:07 PM 35.3986 -89.5011 205° Southwest 391 450 12,700 -11,703 Descending Memphis Center
Thu 11:28:07 PM 35.3344 -89.5808 225° Southwest 351 404 11,900 -950 Descending Memphis Center
Thu 11:29:07 PM 35.2767 -89.6575 227° Southwest 318 366 10,800 -950 Descending Memphis Center
Thu 11:30:07 PM 35.2269 -89.7217 227° Southwest 305 351 10,000 -800 Descending Memphis Center
Thu 11:31:07 PM 35.1750 -89.7856 225° Southwest 284 327 9,200 -800 Descending Memphis Center
Thu 11:32:07 PM 35.1272 -89.8467 226° Southwest 260 299 8,400 -1,000 Descending Memphis Center
Thu 11:33:07 PM 35.0689 -89.8675 196° South 216 249 7,200 -1,450 Descending Memphis Center
Thu 11:34:07 PM 35.0042 -89.8653 178° South 229 264 5,500 -1,500 Descending Memphis Center
Thu 11:35:07 PM 34.9417 -89.8681 182° South 229 264 4,200 -1,200 Descending Memphis Center
Thu 11:36:07 PM 34.8833 -89.8761 186° South 229 264 3,100 -600 Descending Memphis Center
Thu 11:37:07 PM 34.8794 -89.9419 266° West 171 197 3,000 -350 Descending Memphis Center
Thu 11:38:07 PM 34.9233 -89.9722 331° Northwest 148 170 2,400 -852 Descending Memphis Center
Thu 11:39:42 PM 35.0000 -89.9667 North 166 191 800 -1,011 Descending KMEM
Thu 11:41:00 PM 35.0333 -89.9667 345° North  Level FlightAware Approximate
Thu 11:48:00 PM 35.0424 -89.9767 345° North  Level Estimated
Thu 11:49:00 PM 35.0424 -89.9767 345° North  Level Estimated
Thu 11:50:00 PM 35.0424 -89.9767 345° North  Level Estimated
Thu 11:51:00 PM 35.0424 -89.9767 345° North  Level Estimated
Thu 11:52:00 PM 35.0424 -89.9767 345° North  Level Estimated
Thu 11:53:00 PM 35.0424 -89.9767 345° North  Level Estimated
Thu 11:54:00 PM 35.0424 -89.9767 345° North  Level Estimated
Thu 11:55:00 PM 35.0424 -89.9767 345° North  Level Estimated
Thu 11:56:00 PM 35.0424 -89.9767 345° North  Level Estimated
Thu 11:57:00 PM 35.0424 -89.9767 345° North  Level Estimated
Thu 11:58:00 PM 35.0424 -89.9767 345° North  Level Estimated

Login

Don't have an account? Register now (free) for customized features, flight alerts, and more!